Time;durP1;ratioP1;P1;durP2;ratioP2;P2;SDS_P1;SDS_P2;PMS_P1;PMS_P2;Temp;Humidity;BMP_temperature;BMP_pressure;BME280_temperature;BME280_humidity;BME280_pressure;Samples;Min_cycle;Max_cycle;Signal;HPM_P1;HPM_P2
2022/11/12 00:00:32;;;;;;;1999.90;999.90;;;5.70;99.90;;;;;;5051013;28;20840;-67
2022/11/12 00:02:59;;;;;;;1999.90;999.90;;;5.80;99.90;;;;;;5050981;28;20962;-68
2022/11/12 00:05:26;;;;;;;1999.90;999.90;;;5.90;99.90;;;;;;5050702;28;20478;-67
2022/11/12 00:07:53;;;;;;;1999.90;999.90;;;5.80;99.90;;;;;;5050384;28;20484;-67
2022/11/12 00:10:20;;;;;;;1999.90;999.90;;;5.80;99.90;;;;;;5051746;28;20480;-68
2022/11/12 00:12:48;;;;;;;1999.90;999.90;;;5.70;99.90;;;;;;5050550;28;20458;-67
2022/11/12 00:15:15;;;;;;;1999.90;999.90;;;5.70;99.90;;;;;;5049385;28;20485;-68
2022/11/12 00:17:42;;;;;;;1999.90;999.90;;;5.90;99.90;;;;;;5046938;28;20472;-68
2022/11/12 00:20:09;;;;;;;1999.90;999.90;;;5.80;99.90;;;;;;5049805;28;21129;-67
2022/11/12 00:22:36;;;;;;;1999.90;999.90;;;5.80;99.90;;;;;;5051419;28;20465;-67
2022/11/12 00:25:04;;;;;;;1999.90;999.90;;;5.80;99.90;;;;;;5049174;28;20497;-68
2022/11/12 00:27:32;;;;;;;1999.90;999.90;;;5.90;99.90;;;;;;5050666;28;20459;-67
2022/11/12 00:30:00;;;;;;;1999.90;999.90;;;5.90;99.90;;;;;;5047972;28;20994;-67
2022/11/12 00:32:27;;;;;;;1999.90;999.90;;;5.90;99.90;;;;;;5046180;28;20466;-67
2022/11/12 00:34:53;;;;;;;1999.90;999.90;;;6.00;99.90;;;;;;5049259;28;20993;-67
2022/11/12 00:37:22;;;;;;;1999.90;999.90;;;6.20;99.90;;;;;;5050488;28;21001;-67
2022/11/12 00:39:48;;;;;;;1999.90;999.90;;;6.20;99.90;;;;;;5051167;28;20457;-67
2022/11/12 00:42:15;;;;;;;1999.90;999.90;;;6.10;99.90;;;;;;5052361;28;20462;-67
2022/11/12 00:44:42;;;;;;;1999.90;999.90;;;6.00;99.90;;;;;;5048093;28;20493;-67
2022/11/12 00:47:10;;;;;;;1999.90;999.90;;;6.10;99.90;;;;;;5051396;28;20462;-68
2022/11/12 00:49:37;;;;;;;1999.90;999.90;;;6.10;99.90;;;;;;5051511;28;20486;-67
2022/11/12 00:52:04;;;;;;;1999.90;999.90;;;6.10;99.90;;;;;;5050353;28;20466;-67
2022/11/12 00:54:31;;;;;;;1999.90;999.90;;;6.10;99.90;;;;;;5050698;28;20478;-67
2022/11/12 00:56:57;;;;;;;1999.90;999.90;;;6.00;99.90;;;;;;5047409;28;20479;-65
2022/11/12 00:59:24;;;;;;;1999.90;999.90;;;5.90;99.90;;;;;;5050563;28;20458;-64
2022/11/12 01:01:51;;;;;;;1999.90;999.90;;;5.90;99.90;;;;;;5049013;28;20489;-66
2022/11/12 01:04:19;;;;;;;1999.90;999.90;;;5.70;99.90;;;;;;5051132;28;20483;-64
2022/11/12 01:06:46;;;;;;;1999.90;999.90;;;5.40;99.90;;;;;;5049097;28;20545;-67
2022/11/12 01:09:13;;;;;;;1999.90;999.90;;;5.10;99.90;;;;;;5049751;28;20486;-67
2022/11/12 01:11:41;;;;;;;1999.90;999.90;;;5.10;99.90;;;;;;5050572;28;20466;-68
2022/11/12 01:14:09;;;;;;;1999.90;999.90;;;5.00;99.90;;;;;;5049532;28;21009;-68
2022/11/12 01:16:38;;;;;;;1999.90;999.90;;;4.80;99.90;;;;;;5047214;28;20473;-67
2022/11/12 01:19:07;;;;;;;1999.90;999.90;;;4.90;99.90;;;;;;5050265;28;20456;-67
2022/11/12 01:21:39;;;;;;;1999.90;999.90;;;4.90;99.90;;;;;;5045601;28;20462;-67
2022/11/12 01:24:07;;;;;;;1999.90;999.90;;;4.90;99.90;;;;;;5049586;28;20490;-67
2022/11/12 01:26:34;;;;;;;1999.90;999.90;;;4.90;99.90;;;;;;5046549;28;21145;-67
2022/11/12 01:29:01;;;;;;;1999.90;999.90;;;4.90;99.90;;;;;;5048606;28;20486;-67
2022/11/12 01:31:30;;;;;;;1999.90;999.90;;;4.90;99.90;;;;;;5050390;28;20611;-68
2022/11/12 01:33:58;;;;;;;1999.90;999.90;;;4.90;99.90;;;;;;5050399;28;21036;-68
2022/11/12 01:36:27;;;;;;;1999.90;999.90;;;4.80;99.90;;;;;;5044529;28;20481;-67
2022/11/12 01:38:55;;;;;;;1999.90;999.90;;;4.90;99.90;;;;;;5049891;28;20974;-67
2022/11/12 01:41:24;;;;;;;1999.90;999.90;;;4.90;99.90;;;;;;5051139;28;20461;-66
2022/11/12 01:44:07;;;;;;;1999.90;999.90;;;5.00;99.90;;;;;;5042793;28;20475;-68
2022/11/12 01:46:37;;;;;;;1999.90;999.90;;;4.90;99.90;;;;;;5043608;28;20451;-67
2022/11/12 01:49:08;;;;;;;1999.90;999.90;;;4.90;99.90;;;;;;5049664;28;20520;-68
2022/11/12 01:51:39;;;;;;;1999.90;999.90;;;4.90;99.90;;;;;;5050306;28;20533;-67
2022/11/12 01:54:12;;;;;;;1999.90;999.90;;;4.80;99.90;;;;;;5050061;28;20485;-67
2022/11/12 01:56:39;;;;;;;1999.90;999.90;;;4.80;99.90;;;;;;5047127;28;20461;-68
2022/11/12 01:59:11;;;;;;;1999.90;999.90;;;4.50;99.90;;;;;;5047385;28;20458;-68
2022/11/12 02:01:38;;;;;;;1999.90;999.90;;;4.40;99.90;;;;;;5049902;28;20841;-68
2022/11/12 02:04:05;;;;;;;1999.90;999.90;;;4.40;99.90;;;;;;5047523;28;21040;-68
2022/11/12 02:06:34;;;;;;;1999.90;999.90;;;4.40;99.90;;;;;;5049248;28;20454;-67
2022/11/12 02:09:01;;;;;;;1999.90;999.90;;;4.50;99.90;;;;;;5042985;28;20486;-68
2022/11/12 02:11:29;;;;;;;1999.90;999.90;;;4.50;99.90;;;;;;5050111;28;20468;-67
2022/11/12 02:14:00;;;;;;;1999.90;999.90;;;4.60;99.90;;;;;;5035983;28;20494;-67
2022/11/12 02:16:30;;;;;;;1999.90;999.90;;;4.70;99.90;;;;;;5043278;28;20445;-68
2022/11/12 02:18:57;;;;;;;1999.90;999.90;;;4.80;99.90;;;;;;5042317;28;20553;-67
2022/11/12 02:21:26;;;;;;;1999.90;999.90;;;4.80;99.90;;;;;;5037180;28;20458;-68
2022/11/12 02:24:02;;;;;;;1999.90;999.90;;;4.80;99.90;;;;;;5048823;28;20861;-67
2022/11/12 02:26:33;;;;;;;1999.90;999.90;;;4.90;99.90;;;;;;5044570;28;20462;-68
2022/11/12 02:28:59;;;;;;;1999.90;999.90;;;4.90;99.90;;;;;;5048761;28;20493;-68
2022/11/12 02:31:26;;;;;;;1999.90;999.90;;;5.00;99.90;;;;;;5035425;28;20458;-67
2022/11/12 02:33:53;;;;;;;1999.90;999.90;;;4.80;99.90;;;;;;5047621;28;20474;-67
2022/11/12 02:36:20;;;;;;;1999.90;999.90;;;4.60;99.90;;;;;;5045576;28;20466;-67
2022/11/12 02:38:48;;;;;;;1999.90;999.90;;;4.60;99.90;;;;;;5043966;28;20458;-67
2022/11/12 02:41:15;;;;;;;1999.90;999.90;;;4.70;99.90;;;;;;5050647;28;20457;-67
2022/11/12 02:43:42;;;;;;;1999.90;999.90;;;4.70;99.90;;;;;;5042919;28;20455;-67
2022/11/12 02:46:09;;;;;;;1999.90;999.90;;;4.80;99.90;;;;;;5035697;28;20469;-67
2022/11/12 02:48:36;;;;;;;1999.90;999.90;;;4.90;99.90;;;;;;5049478;28;20484;-67
2022/11/12 02:51:02;;;;;;;1999.90;999.90;;;4.70;99.90;;;;;;5042222;28;20470;-67
2022/11/12 02:53:31;;;;;;;1999.90;999.90;;;4.70;99.90;;;;;;5046037;28;20461;-67
2022/11/12 02:56:00;;;;;;;1999.90;999.90;;;4.70;99.90;;;;;;5045787;28;20470;-67
2022/11/12 02:58:27;;;;;;;1999.90;999.90;;;4.70;99.90;;;;;;5049073;28;20462;-67
2022/11/12 03:00:54;;;;;;;1999.90;999.90;;;4.70;99.90;;;;;;5049651;28;20466;-67
2022/11/12 03:03:21;;;;;;;1999.90;999.90;;;4.60;99.90;;;;;;5049383;28;20835;-68
2022/11/12 03:05:55;;;;;;;1999.90;999.90;;;4.60;99.90;;;;;;5048824;28;20477;-67
2022/11/12 03:08:22;;;;;;;1999.90;999.90;;;4.70;99.90;;;;;;5034742;28;20981;-67
2022/11/12 03:10:49;;;;;;;1999.90;999.90;;;4.70;99.90;;;;;;5045238;28;20521;-67
2022/11/12 03:13:18;;;;;;;1999.90;999.90;;;4.70;99.90;;;;;;5050168;28;20485;-67
2022/11/12 03:15:44;;;;;;;1999.90;999.90;;;4.80;99.90;;;;;;5050208;28;20488;-68
2022/11/12 03:18:11;;;;;;;1999.90;999.90;;;4.90;99.90;;;;;;5047673;28;20478;-67
2022/11/12 03:20:38;;;;;;;1999.90;999.90;;;4.90;99.90;;;;;;5049436;28;20958;-67
2022/11/12 03:23:07;;;;;;;1999.90;999.90;;;5.00;99.90;;;;;;5045687;28;20981;-68
2022/11/12 03:25:35;;;;;;;1999.90;999.90;;;5.10;99.90;;;;;;5052151;28;20493;-68
2022/11/12 03:28:04;;;;;;;1999.90;999.90;;;5.10;99.90;;;;;;5051795;28;20974;-67
2022/11/12 03:30:34;;;;;;;1999.90;999.90;;;5.10;99.90;;;;;;5046811;28;20512;-67
2022/11/12 03:33:01;;;;;;;1999.90;999.90;;;5.00;99.90;;;;;;5052132;28;20462;-68
2022/11/12 03:35:28;;;;;;;1999.90;999.90;;;5.00;99.90;;;;;;5047266;28;20490;-68
2022/11/12 03:37:55;;;;;;;1999.90;999.90;;;4.90;99.90;;;;;;5046887;28;20470;-67
2022/11/12 03:40:21;;;;;;;1999.90;999.90;;;4.90;99.90;;;;;;5044692;28;20463;-67
2022/11/12 03:42:49;;;;;;;1999.90;999.90;;;4.90;99.90;;;;;;5052440;28;20466;-67
2022/11/12 03:45:17;;;;;;;1999.90;999.90;;;4.90;99.90;;;;;;5050520;28;20501;-68
2022/11/12 03:47:47;;;;;;;1999.90;999.90;;;4.90;99.90;;;;;;5053456;28;20843;-67
2022/11/12 03:50:15;;;;;;;1999.90;999.90;;;4.90;99.90;;;;;;5053698;28;20525;-68
2022/11/12 03:52:44;;;;;;;1999.90;999.90;;;4.90;99.90;;;;;;5051602;28;20462;-67
2022/11/12 03:55:12;;;;;;;1999.90;999.90;;;4.90;99.90;;;;;;5045630;28;20493;-68
2022/11/12 03:57:38;;;;;;;1999.90;999.90;;;4.90;99.90;;;;;;5045757;28;20482;-67
2022/11/12 04:00:07;;;;;;;1999.90;999.90;;;4.90;99.90;;;;;;5050943;28;20837;-68
2022/11/12 04:02:34;;;;;;;1999.90;999.90;;;4.90;99.90;;;;;;5051545;28;20989;-67
2022/11/12 04:10:33;;;;;;;1999.90;999.90;;;4.90;99.90;;;;;;5047441;28;20577;-67
2022/11/12 04:21:49;;;;;;;1999.90;999.90;;;4.80;99.90;;;;;;5050730;28;20968;-68
2022/11/12 04:24:01;;;;;;;1999.90;999.90;;;4.60;99.90;;;;;;5050570;28;20505;-67
2022/11/12 04:26:26;;;;;;;1999.90;999.90;;;4.70;99.90;;;;;;5051324;28;20835;-67
2022/11/12 04:31:37;;;;;;;1999.90;999.90;;;4.90;99.90;;;;;;5051225;28;20206;-68
2022/11/12 04:36:46;;;;;;;1999.90;999.90;;;4.80;99.90;;;;;;5045074;28;20511;-67
2022/11/12 04:39:13;;;;;;;1999.90;999.90;;;4.70;99.90;;;;;;5051408;28;20465;-68
2022/11/12 04:47:08;;;;;;;1999.90;999.90;;;4.60;99.90;;;;;;5050438;28;20596;-67
2022/11/12 04:49:34;;;;;;;1999.90;999.90;;;4.50;99.90;;;;;;5050203;28;20887;-68
2022/11/12 04:52:05;;;;;;;1999.90;999.90;;;4.40;99.90;;;;;;5049855;28;20467;-67
2022/11/12 04:54:32;;;;;;;1999.90;999.90;;;4.50;99.90;;;;;;5048906;28;20481;-67
2022/11/12 04:56:59;;;;;;;1999.90;999.90;;;4.40;99.90;;;;;;5047888;28;20463;-67
2022/11/12 04:59:26;;;;;;;1999.90;999.90;;;4.40;99.90;;;;;;5041682;28;20459;-67
2022/11/12 05:01:53;;;;;;;1999.90;999.90;;;4.30;99.90;;;;;;5051511;28;20464;-68
2022/11/12 05:04:20;;;;;;;1999.90;999.90;;;4.30;99.90;;;;;;5049437;28;20490;-67
2022/11/12 05:06:53;;;;;;;1999.90;999.90;;;4.30;99.90;;;;;;5048973;28;20454;-67
2022/11/12 05:09:23;;;;;;;1999.90;999.90;;;4.20;99.90;;;;;;5049722;28;20559;-67
2022/11/12 05:11:50;;;;;;;1999.90;999.90;;;4.20;99.90;;;;;;5049443;28;20466;-68
2022/11/12 05:14:17;;;;;;;1999.90;999.90;;;4.10;99.90;;;;;;5050341;28;20493;-67
2022/11/12 05:16:44;;;;;;;1999.90;999.90;;;4.10;99.90;;;;;;5049199;28;20466;-67
2022/11/12 05:19:11;;;;;;;1999.90;999.90;;;4.00;99.90;;;;;;5049963;28;20450;-67
2022/11/12 05:24:24;;;;;;;1999.90;999.90;;;4.00;99.90;;;;;;5048922;28;21137;-67
2022/11/12 05:26:51;;;;;;;1999.90;999.90;;;4.10;99.90;;;;;;5049299;28;20462;-67
2022/11/12 05:29:18;;;;;;;1999.90;999.90;;;4.10;99.90;;;;;;5050994;28;20486;-67
2022/11/12 05:31:45;;;;;;;1999.90;999.90;;;4.10;99.90;;;;;;5044737;28;20469;-67
2022/11/12 05:34:12;;;;;;;1999.90;999.90;;;4.10;99.90;;;;;;5047891;28;20556;-67
2022/11/12 05:36:39;;;;;;;1999.90;999.90;;;4.10;99.90;;;;;;5035029;28;20462;-67
2022/11/12 05:39:06;;;;;;;1999.90;999.90;;;4.10;99.90;;;;;;5049910;28;20544;-67
2022/11/12 05:41:34;;;;;;;1999.90;999.90;;;4.00;99.90;;;;;;5051088;28;20453;-67
2022/11/12 05:44:01;;;;;;;1999.90;999.90;;;4.00;99.90;;;;;;5048774;28;20489;-67
2022/11/12 05:46:27;;;;;;;1999.90;999.90;;;4.00;99.90;;;;;;5048515;28;20455;-67
2022/11/12 05:48:54;;;;;;;1999.90;999.90;;;4.00;99.90;;;;;;5042938;28;20486;-67
2022/11/12 05:51:21;;;;;;;1999.90;999.90;;;3.90;99.90;;;;;;5038924;28;20462;-67
2022/11/12 05:53:48;;;;;;;1999.90;999.90;;;4.00;99.90;;;;;;5043133;28;20467;-67
2022/11/12 05:56:15;;;;;;;1999.90;999.90;;;4.10;99.90;;;;;;5047921;28;20458;-68
2022/11/12 05:58:43;;;;;;;1999.90;999.90;;;4.10;99.90;;;;;;5043812;28;20466;-68
2022/11/12 06:01:09;;;;;;;1999.90;999.90;;;4.00;99.90;;;;;;5049754;28;20462;-67
2022/11/12 06:03:36;;;;;;;1999.90;999.90;;;4.20;99.90;;;;;;5043585;28;20851;-67
2022/11/12 06:06:03;;;;;;;1999.90;999.90;;;4.20;99.90;;;;;;5035198;28;20538;-68
2022/11/12 06:08:30;;;;;;;1999.90;999.90;;;4.30;99.90;;;;;;5050633;28;20465;-67
2022/11/12 06:10:57;;;;;;;1999.90;999.90;;;4.30;99.90;;;;;;5048406;28;20490;-67
2022/11/12 06:13:25;;;;;;;1999.90;999.90;;;4.40;99.90;;;;;;5048684;28;20462;-67
2022/11/12 06:15:55;;;;;;;1999.90;999.90;;;4.40;99.90;;;;;;5048029;28;20489;-67
2022/11/12 06:18:22;;;;;;;1999.90;999.90;;;4.40;99.90;;;;;;5040732;28;20462;-67
2022/11/12 06:21:18;;;;;;;1999.90;999.90;;;4.50;99.90;;;;;;5040061;28;20459;-67
2022/11/12 06:23:37;;;;;;;1999.90;999.90;;;4.50;99.90;;;;;;5044595;28;20505;-67
2022/11/12 06:26:04;;;;;;;1999.90;999.90;;;4.60;99.90;;;;;;5048112;28;20868;-67
2022/11/12 06:28:31;;;;;;;1999.90;999.90;;;4.60;99.90;;;;;;5049445;28;20458;-67
2022/11/12 06:30:59;;;;;;;1999.90;999.90;;;4.60;99.90;;;;;;5043616;28;20489;-67
2022/11/12 06:33:25;;;;;;;1999.90;999.90;;;4.50;99.90;;;;;;5047559;28;20469;-68
2022/11/12 06:36:01;;;;;;;1999.90;999.90;;;4.50;99.90;;;;;;5048866;28;20462;-67
2022/11/12 06:38:29;;;;;;;1999.90;999.90;;;4.50;99.90;;;;;;5050977;28;21011;-67
2022/11/12 06:40:56;;;;;;;1999.90;999.90;;;4.50;99.90;;;;;;5049002;28;20528;-67
2022/11/12 06:43:23;;;;;;;1999.90;999.90;;;4.50;99.90;;;;;;5046885;28;20493;-68
2022/11/12 06:45:50;;;;;;;1999.90;999.90;;;4.50;99.90;;;;;;5044601;28;20482;-67
2022/11/12 06:48:18;;;;;;;1999.90;999.90;;;4.50;99.90;;;;;;5038104;28;21155;-66
2022/11/12 06:50:45;;;;;;;1999.90;999.90;;;4.50;99.90;;;;;;5045559;28;20573;-67
2022/11/12 06:53:12;;;;;;;1999.90;999.90;;;4.60;99.90;;;;;;5048531;28;20462;-67
2022/11/12 06:55:39;;;;;;;1999.90;999.90;;;4.60;99.90;;;;;;5051208;28;20462;-68
2022/11/12 06:58:05;;;;;;;1999.90;999.90;;;4.70;99.90;;;;;;5054290;28;20465;-67
2022/11/12 07:00:32;;;;;;;1999.90;999.90;;;5.00;99.90;;;;;;5055021;28;20442;-67
2022/11/12 07:02:59;;;;;;;1999.90;999.90;;;4.90;99.90;;;;;;5055008;28;20950;-67
2022/11/12 07:05:27;;;;;;;1999.90;999.90;;;4.90;99.90;;;;;;5052016;28;20493;-67
2022/11/12 07:07:54;;;;;;;1999.90;999.90;;;4.90;99.90;;;;;;5052456;28;20833;-67
2022/11/12 07:10:21;;;;;;;1999.90;999.90;;;5.00;99.90;;;;;;5054019;28;20478;-67
2022/11/12 07:12:48;;;;;;;1999.90;999.90;;;5.30;99.90;;;;;;5052089;28;20466;-67
2022/11/12 07:15:15;;;;;;;1999.90;999.90;;;5.40;99.90;;;;;;5047833;28;21021;-67
2022/11/12 07:17:45;;;;;;;1999.90;999.90;;;5.60;99.90;;;;;;5044836;28;20459;-67
2022/11/12 07:20:12;;;;;;;1999.90;999.90;;;5.70;99.90;;;;;;5050931;28;20531;-67
2022/11/12 07:22:40;;;;;;;1999.90;999.90;;;5.80;99.90;;;;;;5051355;28;21073;-67
2022/11/12 07:25:08;;;;;;;1999.90;999.90;;;6.00;99.90;;;;;;5049883;28;20875;-67
2022/11/12 07:27:34;;;;;;;1999.90;999.90;;;6.10;99.90;;;;;;5050792;28;20463;-67
2022/11/12 07:30:01;;;;;;;1999.90;999.90;;;6.40;99.90;;;;;;5046491;28;20485;-67
2022/11/12 07:32:28;;;;;;;1999.90;999.90;;;6.60;99.90;;;;;;5046820;28;20465;-67
2022/11/12 07:34:55;;;;;;;1999.90;999.90;;;6.70;99.90;;;;;;5052486;28;20493;-66
2022/11/12 07:37:21;;;;;;;1999.90;999.90;;;6.80;99.90;;;;;;5054388;28;20476;-67
2022/11/12 07:39:49;;;;;;;1999.90;999.90;;;6.90;99.90;;;;;;5052462;28;20455;-67
2022/11/12 07:42:16;;;;;;;1999.90;999.90;;;7.10;99.90;;;;;;5049826;28;20477;-67
2022/11/12 07:44:43;;;;;;;1999.90;999.90;;;7.10;99.90;;;;;;5047028;28;20478;-67
2022/11/12 07:47:10;;;;;;;1999.90;999.90;;;7.30;99.90;;;;;;5047083;28;20464;-68
2022/11/12 07:49:37;;;;;;;1999.90;999.90;;;7.50;99.90;;;;;;5046059;28;20458;-69
2022/11/12 07:52:04;;;;;;;1999.90;999.90;;;7.60;99.90;;;;;;5043706;28;20495;-69
2022/11/12 07:54:31;;;;;;;1999.90;999.90;;;7.70;99.90;;;;;;5052842;28;20466;-70
2022/11/12 07:56:59;;;;;;;1999.90;999.90;;;7.90;99.90;;;;;;5051135;28;20466;-70
2022/11/12 07:59:27;;;;;;;1999.90;999.90;;;8.20;99.90;;;;;;5044950;28;20466;-70
2022/11/12 08:01:53;;;;;;;1999.90;999.90;;;8.40;99.90;;;;;;5051268;28;21017;-70
2022/11/12 08:04:20;;;;;;;1999.90;999.90;;;8.70;99.90;;;;;;5051252;28;20490;-69
2022/11/12 08:06:48;;;;;;;1999.90;999.90;;;9.30;99.90;;;;;;5049163;28;20815;-70
2022/11/12 08:09:15;;;;;;;1999.90;999.90;;;9.20;99.90;;;;;;5048155;28;20986;-69
2022/11/12 08:11:42;;;;;;;1999.90;999.90;;;9.40;99.90;;;;;;5047057;28;20493;-68
2022/11/12 08:14:10;;;;;;;1999.90;999.90;;;9.90;99.90;;;;;;5050293;28;20486;-68
2022/11/12 08:16:37;;;;;;;1999.90;999.90;;;10.10;99.90;;;;;;5044992;28;20473;-67
2022/11/12 08:19:03;;;;;;;1999.90;999.90;;;10.40;99.90;;;;;;5048500;28;20494;-68
2022/11/12 08:21:30;;;;;;;1999.90;999.90;;;10.50;99.90;;;;;;5043621;28;20467;-68
2022/11/12 08:23:57;;;;;;;1999.90;999.90;;;10.50;99.90;;;;;;5044453;28;20493;-67
2022/11/12 08:26:25;;;;;;;1999.90;999.90;;;10.60;99.90;;;;;;5052238;28;21032;-67
2022/11/12 08:28:52;;;;;;;1999.90;999.90;;;10.50;99.90;;;;;;5051386;28;21255;-67
2022/11/12 08:31:22;;;;;;;1999.90;999.90;;;10.50;99.90;;;;;;5048835;28;21445;-68
2022/11/12 08:33:48;;;;;;;1999.90;999.90;;;10.40;99.90;;;;;;5048274;28;20493;-67
2022/11/12 08:36:17;;;;;;;1999.90;999.90;;;10.30;99.90;;;;;;5051040;28;20819;-68
2022/11/12 08:38:43;;;;;;;1999.90;999.90;;;10.40;99.90;;;;;;5053138;28;20448;-67
2022/11/12 08:41:12;;;;;;;1999.90;999.90;;;10.40;99.90;;;;;;5053403;28;20438;-68
2022/11/12 08:43:40;;;;;;;1999.90;999.90;;;10.30;99.90;;;;;;5052147;28;20462;-68
2022/11/12 08:46:07;;;;;;;1999.90;999.90;;;10.30;99.90;;;;;;5052411;28;20473;-67
2022/11/12 08:48:35;;;;;;;1999.90;999.90;;;10.20;99.90;;;;;;5052826;28;20446;-68
2022/11/12 08:51:02;;;;;;;1999.90;999.90;;;10.20;99.90;;;;;;5051888;28;20489;-67
2022/11/12 08:53:29;;;;;;;1999.90;999.90;;;10.10;99.90;;;;;;5052683;28;20449;-67
2022/11/12 08:55:56;;;;;;;1999.90;999.90;;;10.20;99.90;;;;;;5050866;28;20481;-68
2022/11/12 08:58:24;;;;;;;1999.90;999.90;;;10.20;99.90;;;;;;5052550;28;20450;-68
2022/11/12 09:00:51;;;;;;;1999.90;999.90;;;10.10;99.90;;;;;;5049130;28;20465;-69
2022/11/12 09:03:20;;;;;;;1999.90;999.90;;;10.10;99.90;;;;;;5051352;28;20493;-68
2022/11/12 09:05:49;;;;;;;1999.90;999.90;;;10.30;99.90;;;;;;5049036;28;21001;-67
2022/11/12 09:08:18;;;;;;;1999.90;999.90;;;10.40;99.90;;;;;;5052282;28;20451;-68
2022/11/12 09:10:45;;;;;;;1999.90;999.90;;;10.50;99.90;;;;;;5050393;28;20474;-67
2022/11/12 09:13:12;;;;;;;1999.90;999.90;;;10.60;99.90;;;;;;5049664;28;20485;-67
2022/11/12 09:15:39;;;;;;;1999.90;999.90;;;10.70;99.90;;;;;;5049287;28;20505;-68
2022/11/12 09:18:08;;;;;;;1999.90;999.90;;;10.70;99.90;;;;;;5047240;28;20458;-67
2022/11/12 09:20:35;;;;;;;1999.90;999.90;;;11.00;99.90;;;;;;5046597;28;20481;-67
2022/11/12 09:23:05;;;;;;;1999.90;999.90;;;11.10;99.90;;;;;;5052184;28;20578;-68
2022/11/12 09:25:33;;;;;;;1999.90;999.90;;;11.10;99.90;;;;;;5049251;28;20493;-68
2022/11/12 09:28:07;;;;;;;1999.90;999.90;;;11.00;99.90;;;;;;5051300;28;20462;-67
2022/11/12 09:30:34;;;;;;;1999.90;999.90;;;11.10;99.90;;;;;;5051010;28;20875;-68
2022/11/12 09:33:01;;;;;;;1999.90;999.90;;;11.00;99.90;;;;;;5049911;28;20472;-68
2022/11/12 09:35:27;;;;;;;1999.90;999.90;;;11.00;99.90;;;;;;5051274;28;20504;-70
2022/11/12 09:37:54;;;;;;;1999.90;999.90;;;11.00;99.90;;;;;;5042903;28;20483;-69
2022/11/12 09:40:39;;;;;;;1999.90;999.90;;;10.90;99.90;;;;;;5051476;28;20450;-68
2022/11/12 09:43:17;;;;;;;1999.90;999.90;;;10.90;99.90;;;;;;5052026;28;20805;-68
2022/11/12 09:45:45;;;;;;;1999.90;999.90;;;10.90;99.90;;;;;;5048821;28;20488;-68
2022/11/12 09:48:18;;;;;;;1999.90;999.90;;;11.00;99.90;;;;;;5047531;28;20915;-69
2022/11/12 09:50:54;;;;;;;1999.90;999.90;;;11.00;99.90;;;;;;5043697;28;20508;-68
2022/11/12 09:53:29;;;;;;;1999.90;999.90;;;11.00;99.90;;;;;;5049916;28;20458;-67
2022/11/12 09:55:58;;;;;;;1999.90;999.90;;;11.10;99.90;;;;;;5050197;28;20468;-67
2022/11/12 09:58:26;;;;;;;1999.90;999.90;;;11.20;99.90;;;;;;5051321;28;20441;-67
2022/11/12 10:00:55;;;;;;;1999.90;999.90;;;11.20;99.90;;;;;;5051520;28;20434;-66
2022/11/12 10:03:34;;;;;;;1999.90;999.90;;;11.40;99.90;;;;;;5048935;28;20466;-66
2022/11/12 10:06:05;;;;;;;1999.90;999.90;;;11.60;99.90;;;;;;5050514;28;20442;-66
2022/11/12 10:08:40;;;;;;;1999.90;999.90;;;11.60;99.90;;;;;;5051085;28;20816;-66
2022/11/12 10:11:24;;;;;;;1999.90;999.90;;;11.60;99.90;;;;;;5050227;28;20481;-67
2022/11/12 10:14:00;;;;;;;1999.90;999.90;;;11.60;99.90;;;;;;5051686;28;20434;-67
2022/11/12 10:16:44;;;;;;;1999.90;999.90;;;11.60;99.90;;;;;;5050938;28;20430;-67
2022/11/12 10:19:28;;;;;;;1999.90;999.90;;;11.80;99.90;;;;;;5047181;28;20446;-66
2022/11/12 10:22:05;;;;;;;1999.90;999.90;;;12.00;99.90;;;;;;5047916;28;20535;-67
2022/11/12 10:24:35;;;;;;;1999.90;999.90;;;12.00;99.90;;;;;;5045690;28;20568;-67
2022/11/12 10:27:13;;;;;;;1999.90;999.90;;;12.20;99.90;;;;;;5050632;28;20966;-67
2022/11/12 10:29:49;;;;;;;1999.90;999.90;;;12.20;99.90;;;;;;5052527;28;20450;-67
2022/11/12 10:32:16;;;;;;;1999.90;999.90;;;12.20;99.90;;;;;;5055014;28;20557;-68
2022/11/12 10:34:43;;;;;;;1999.90;999.90;;;12.50;99.90;;;;;;5054513;28;20466;-67
2022/11/12 10:37:17;;;;;;;1999.90;999.90;;;12.30;99.90;;;;;;5055198;28;20446;-67
2022/11/12 10:39:46;;;;;;;1999.90;999.90;;;12.30;99.90;;;;;;5055640;28;20436;-67
2022/11/12 10:42:16;;;;;;;1999.90;999.90;;;12.40;99.90;;;;;;5055178;28;20511;-67
2022/11/12 10:44:43;;;;;;;1999.90;999.90;;;12.20;99.90;;;;;;5054214;28;20477;-67
2022/11/12 10:47:21;;;;;;;1999.90;999.90;;;12.20;99.90;;;;;;5054433;28;20462;-67
2022/11/12 10:50:03;;;;;;;1999.90;999.90;;;12.40;99.90;;;;;;5054840;28;20443;-68
2022/11/12 10:52:30;;;;;;;1999.90;999.90;;;12.50;99.90;;;;;;5053399;28;20488;-66
2022/11/12 10:55:06;;;;;;;1999.90;999.90;;;12.50;99.90;;;;;;5053904;28;20522;-66
2022/11/12 10:57:34;;;;;;;1999.90;999.90;;;12.40;99.90;;;;;;5051205;28;20460;-67
2022/11/12 11:00:19;;;;;;;1999.90;999.90;;;12.50;99.90;;;;;;5052394;28;20469;-67
2022/11/12 11:02:49;;;;;;;1999.90;999.90;;;12.70;99.90;;;;;;5046022;28;20463;-67
2022/11/12 11:05:35;;;;;;;1999.90;999.90;;;12.80;99.90;;;;;;5048085;28;21181;-67
2022/11/12 11:08:02;;;;;;;1999.90;999.90;;;12.70;99.90;;;;;;5054573;28;20474;-67
2022/11/12 11:10:30;;;;;;;1999.90;999.90;;;12.80;99.90;;;;;;5053116;28;20454;-67
2022/11/12 11:13:19;;;;;;;1999.90;999.90;;;12.80;99.90;;;;;;5054167;28;20450;-68
2022/11/12 11:16:00;;;;;;;1999.90;999.90;;;12.90;99.90;;;;;;5050626;28;21297;-68
2022/11/12 11:18:27;;;;;;;1999.90;999.90;;;12.70;99.90;;;;;;5053554;28;21229;-67
2022/11/12 11:21:04;;;;;;;1999.90;999.90;;;12.60;99.90;;;;;;5054557;28;20559;-68
2022/11/12 11:23:36;;;;;;;1999.90;999.90;;;12.50;99.90;;;;;;5051903;28;20465;-68
2022/11/12 11:26:16;;;;;;;1999.90;999.90;;;12.60;99.90;;;;;;5048040;28;20474;-68
2022/11/12 11:28:52;;;;;;;1999.90;999.90;;;12.70;99.90;;;;;;5042856;28;20463;-67
2022/11/12 11:31:25;;;;;;;1999.90;999.90;;;13.10;99.90;;;;;;5047136;28;20957;-68
2022/11/12 11:34:07;;;;;;;1999.90;999.90;;;12.80;99.90;;;;;;5043068;28;20459;-67
2022/11/12 11:36:43;;;;;;;1999.90;999.90;;;12.80;99.90;;;;;;5046983;28;20541;-67
2022/11/12 11:39:21;;;;;;;1999.90;999.90;;;12.90;99.90;;;;;;5046172;28;20465;-67
2022/11/12 11:41:58;;;;;;;1999.90;999.90;;;12.90;99.90;;;;;;5051106;28;20548;-68
2022/11/12 11:44:38;;;;;;;1999.90;999.90;;;12.80;99.90;;;;;;5047782;28;20877;-67
2022/11/12 11:47:16;;;;;;;1999.90;999.90;;;12.80;99.90;;;;;;5043301;28;20557;-68
2022/11/12 11:49:54;;;;;;;1999.90;999.90;;;12.90;99.90;;;;;;5053309;28;20462;-67
2022/11/12 11:52:41;;;;;;;1999.90;999.90;;;12.90;99.90;;;;;;5044473;28;20482;-68
2022/11/12 11:55:24;;;;;;;1999.90;999.90;;;13.00;99.90;;;;;;5044032;28;20495;-67
2022/11/12 11:57:59;;;;;;;1999.90;999.90;;;13.00;99.90;;;;;;5043435;28;20883;-68
2022/11/12 12:00:35;;;;;;;1999.90;999.90;;;13.20;99.90;;;;;;5052863;28;20468;-68
2022/11/12 12:03:21;;;;;;;1999.90;999.90;;;13.20;99.90;;;;;;5044147;28;20462;-67
2022/11/12 12:06:22;;;;;;;1999.90;999.90;;;13.30;99.90;;;;;;5044672;28;20482;-66
2022/11/12 12:09:05;;;;;;;1999.90;999.90;;;13.40;99.90;;;;;;5036834;28;20547;-67
2022/11/12 12:11:38;;;;;;;1999.90;999.90;;;13.30;99.90;;;;;;5047042;28;20488;-68
2022/11/12 12:14:15;;;;;;;1999.90;999.90;;;13.40;99.90;;;;;;5053514;28;20486;-67
2022/11/12 12:16:53;;;;;;;1999.90;999.90;;;13.10;99.90;;;;;;5047840;28;21036;-68
2022/11/12 12:19:32;;;;;;;1999.90;999.90;;;13.10;99.90;;;;;;5045811;28;20457;-68
2022/11/12 12:22:01;;;;;;;1999.90;999.90;;;13.20;99.90;;;;;;5045415;28;20466;-67
2022/11/12 12:24:32;;;;;;;1999.90;999.90;;;13.30;99.90;;;;;;5045736;28;20580;-67
2022/11/12 12:27:04;;;;;;;1999.90;999.90;;;13.50;99.90;;;;;;5054425;28;20442;-68
2022/11/12 12:29:37;;;;;;;1999.90;999.90;;;13.50;99.90;;;;;;5045466;28;20841;-67
2022/11/12 12:32:10;;;;;;;1999.90;999.90;;;13.50;99.90;;;;;;5051999;28;20474;-68
2022/11/12 12:34:41;;;;;;;1999.90;999.90;;;13.70;99.90;;;;;;5048939;28;20616;-67
2022/11/12 12:37:17;;;;;;;1999.90;999.90;;;13.90;99.90;;;;;;5050053;28;20475;-69
2022/11/12 12:39:50;;;;;;;1999.90;999.90;;;13.90;99.90;;;;;;5050500;28;20469;-68
2022/11/12 12:42:22;;;;;;;1999.90;999.90;;;14.00;99.90;;;;;;5049013;28;20462;-68
2022/11/12 12:45:03;;;;;;;1999.90;999.90;;;14.10;99.90;;;;;;5049138;28;20926;-68